Rio Blanco — D5BO9 — position and weather

sailwx.info

Track history (hours):
 
Tides and Currents Weather Stations Pressure Air Temp Water Temp Dewpoint Dewpoint Depression Visibility Wind Speed Wind Dir Waves Ship Positions

Rio Blanco

Last reported at 2015-Sep-01 11:33 UTC. Time now 2015-Sep-01 12:07 UTC.
Position N 50°29' E 000°49'.

Length 286 m; draft 10.6 m.

Type: Ship (hazmat cat A). MMSI: 636092395.

Date/timePositionNaut miles runAvg speedWind from/ knotsBaromVisibWave heightAir tempDewpointWater temp
2015-Sep-01 11:33N 50°29' E 000°49'1717.4
2015-Sep-01 10:33N 50°26' E 000°23'27814.4
2015-Aug-31 15:14N 48°19' W 005°57'10915.1
2015-Aug-31 08:00N 46°42' W 007°12'28614.3 360 / 251015.0 5.4 2.520.013.717.0
2015-Aug-30 12:00N 42°18' W 009°48'12014.2 360 / 81012.6 0.3 0.524.916.619.0
2015-Aug-30 03:30N 40°18' W 009°49'4314.6
2015-Aug-30 00:33N 39°35' W 009°50'1514.6
2015-Aug-29 23:33N 39°20' W 009°50'1414.3
2015-Aug-29 22:33N 39°06' W 009°51'1414.2
2015-Aug-29 21:33N 38°52' W 009°51'1414.1
2015-Aug-29 20:33N 38°38' W 009°50'1413.9
2015-Aug-29 19:33N 38°24' W 009°46'1414.4
2015-Aug-29 18:33N 38°10' W 009°42'1414.2
2015-Aug-29 17:33N 37°56' W 009°37'1414.2
2015-Aug-29 16:33N 37°43' W 009°33'1514.6
2015-Aug-29 15:33N 37°28' W 009°30'5613.4
2015-Aug-29 11:24N 36°41' W 008°53'1214.9
2015-Aug-29 10:34N 36°37' W 008°39'3115.2
2015-Aug-29 08:33N 36°27' W 008°02'13115.3
2015-Aug-29 00:00N 36°00' W 005°24'26614.4 050 / 151016.810.8 1.022.618.819.0
2015-Aug-28 05:31N 36°45' E 000°02'1414.8
2015-Aug-28 04:34N 36°49' E 000°19'1514.8
2015-Aug-28 03:33N 36°53' E 000°37'2114.3
2015-Aug-28 02:04N 36°59' E 001°02'713.9
2015-Aug-28 01:33N 37°01' E 001°11'1414.3
2015-Aug-28 00:33N 37°05' E 001°28'611.2
2015-Aug-28 00:00N 37°06' E 001°36'1020.1 090 / 121014.910.8 1.025.419.125.0
2015-Aug-27 23:31N 37°09' E 001°47'1515.8
2015-Aug-27 22:33N 37°14' E 002°06'1615.9
2015-Aug-27 21:33N 37°18' E 002°25'1515.4
2015-Aug-27 20:33N 37°22' E 002°44'1515.4
2015-Aug-27 19:33N 37°27' E 003°02'1515.4
2015-Aug-27 18:33N 37°31' E 003°21'1515.5
2015-Aug-27 17:33N 37°35' E 003°40'1515.4
2015-Aug-27 16:33N 37°39' E 003°58'1515.3
2015-Aug-27 15:33N 37°44' E 004°17'1515.1
2015-Aug-27 14:33N 37°48' E 004°35'1515.3
2015-Aug-27 13:33N 37°52' E 004°54'1515.3
2015-Aug-27 12:33N 37°56' E 005°13'5 8.4
2015-Aug-27 12:00N 37°54' E 005°18'1227.1 070 / 101016.610.8 0.528.921.126.0
2015-Aug-27 11:33N 38°01' E 005°31'1414.2
2015-Aug-27 10:33N 38°05' E 005°48'5315.2
2015-Aug-27 07:06N 38°19' E 006°53'8715.4
2015-Aug-27 01:25N 38°44' E 008°40'1315.1
2015-Aug-27 00:33N 38°49' E 008°55'611.3
2015-Aug-27 00:00N 38°54' E 009°00'818.7 070 / 121016.410.8 0.524.720.025.0
2015-Aug-26 23:33N 38°60' E 009°08'1212.4
2015-Aug-26 22:33N 39°12' E 009°05'1 1.1
2015-Aug-26 21:32N 39°13' E 009°04'0 0.0
2015-Aug-26 20:32N 39°13' E 009°04'0 0.0
2015-Aug-26 19:32N 39°13' E 009°04'0 0.0
2015-Aug-26 18:32N 39°13' E 009°04'0 0.0
2015-Aug-26 17:32N 39°13' E 009°04'0 0.0
2015-Aug-26 16:32N 39°13' E 009°04'0 0.0
2015-Aug-26 15:32N 39°13' E 009°04'0 0.0
2015-Aug-26 14:32N 39°13' E 009°04'0 0.0
2015-Aug-26 13:32N 39°13' E 009°04'0 0.0
2015-Aug-26 12:32N 39°13' E 009°04'0 0.5
2015-Aug-26 11:32N 39°13' E 009°04'5 5.1
2015-Aug-26 10:32N 39°08' E 009°05'1414.0
2015-Aug-26 09:33N 38°59' E 009°19'1313.3
2015-Aug-26 08:33N 38°52' E 009°34'6713.4
2015-Aug-26 03:32N 38°16' E 010°46'1413.6
2015-Aug-26 02:31N 38°09' E 011°01'2613.2
2015-Aug-26 00:33N 37°55' E 011°29'915.5
2015-Aug-26 00:00N 37°48' E 011°36'511.5 330 / 51017.310.8 0.525.820.626.0
2015-Aug-25 23:33N 37°47' E 011°42'2512.6
2015-Aug-25 21:33N 37°34' E 012°10'1312.7
2015-Aug-25 20:33N 37°27' E 012°23'1312.8
2015-Aug-25 19:34N 37°21' E 012°37'1313.0
2015-Aug-25 18:33N 37°19' E 012°53'1312.5
2015-Aug-25 17:33N 37°15' E 013°08'1312.6
2015-Aug-25 16:33N 37°09' E 013°22'1312.8
2015-Aug-25 15:33N 37°03' E 013°36'1312.8
2015-Aug-25 14:33N 36°57' E 013°50'1313.0
2015-Aug-25 13:33N 36°51' E 014°05'1313.0
2015-Aug-25 12:33N 36°45' E 014°19'5 8.7
2015-Aug-25 12:00N 36°42' E 014°24'818.3 270 / 81017.810.8 0.531.022.627.0
2015-Aug-25 11:33N 36°40' E 014°33'1212.4
2015-Aug-25 10:33N 36°36' E 014°48'1312.7
2015-Aug-25 09:31N 36°32' E 015°04'1212.4
2015-Aug-25 08:33N 36°29' E 015°18'1312.8
2015-Aug-25 07:33N 36°24' E 015°33'1313.1
2015-Aug-25 06:33N 36°20' E 015°48'1313.1
2015-Aug-25 05:33N 36°15' E 016°04'1312.9
2015-Aug-25 04:33N 36°11' E 016°19'1312.9
2015-Aug-25 03:33N 36°07' E 016°34'1313.0
2015-Aug-25 02:33N 36°03' E 016°49'1313.0
2015-Aug-25 01:32N 35°59' E 017°05'1613.0
2015-Aug-25 00:18N 35°54' E 017°23'1012.8
2015-Aug-24 23:33N 35°51' E 017°35'1313.0
2015-Aug-24 22:33N 35°46' E 017°50'47013.6
2015-Aug-23 12:00N 33°12' E 026°48'26814.2 350 / 111010.010.8 1.028.720.428.0
2015-Aug-22 17:05N 31°50' E 031°51'1013.2
2015-Aug-22 16:20N 31°44' E 032°00'1113.7
2015-Aug-22 15:33N 31°37' E 032°09'1313.4
2015-Aug-22 14:33N 31°29' E 032°22'2110.4
2015-Aug-22 12:32N 31°09' E 032°19'  
Track history (hours):
 
Tides and Currents Weather Stations Pressure Air Temp Water Temp Dewpoint Dewpoint Depression Visibility Wind Speed Wind Dir Waves Ship Positions

Rio Blanco

Last reported at 2015-Sep-01 11:33 UTC. Time now 2015-Sep-01 12:07 UTC.
Position N 50°29' E 000°49'.

Length 286 m; draft 10.6 m.

Type: Ship (hazmat cat A). MMSI: 636092395.

Date/timePositionNaut miles runAvg speedWind from/ knotsBaromVisibWave heightAir tempDewpointWater temp
2015-Sep-01 11:33N 50°29' E 000°49'1717.4
2015-Sep-01 10:33N 50°26' E 000°23'27814.4
2015-Aug-31 15:14N 48°19' W 005°57'10915.1
2015-Aug-31 08:00N 46°42' W 007°12'28614.3 360 / 251015.0 5.4 2.520.013.717.0
2015-Aug-30 12:00N 42°18' W 009°48'12014.2 360 / 81012.6 0.3 0.524.916.619.0
2015-Aug-30 03:30N 40°18' W 009°49'4314.6
2015-Aug-30 00:33N 39°35' W 009°50'1514.6
2015-Aug-29 23:33N 39°20' W 009°50'1414.3
2015-Aug-29 22:33N 39°06' W 009°51'1414.2
2015-Aug-29 21:33N 38°52' W 009°51'1414.1
2015-Aug-29 20:33N 38°38' W 009°50'1413.9
2015-Aug-29 19:33N 38°24' W 009°46'1414.4
2015-Aug-29 18:33N 38°10' W 009°42'1414.2
2015-Aug-29 17:33N 37°56' W 009°37'1414.2
2015-Aug-29 16:33N 37°43' W 009°33'1514.6
2015-Aug-29 15:33N 37°28' W 009°30'5613.4
2015-Aug-29 11:24N 36°41' W 008°53'1214.9
2015-Aug-29 10:34N 36°37' W 008°39'3115.2
2015-Aug-29 08:33N 36°27' W 008°02'13115.3
2015-Aug-29 00:00N 36°00' W 005°24'26614.4 050 / 151016.810.8 1.022.618.819.0
2015-Aug-28 05:31N 36°45' E 000°02'1414.8
2015-Aug-28 04:34N 36°49' E 000°19'1514.8
2015-Aug-28 03:33N 36°53' E 000°37'2114.3
2015-Aug-28 02:04N 36°59' E 001°02'713.9
2015-Aug-28 01:33N 37°01' E 001°11'1414.3
2015-Aug-28 00:33N 37°05' E 001°28'611.2
2015-Aug-28 00:00N 37°06' E 001°36'1020.1 090 / 121014.910.8 1.025.419.125.0
2015-Aug-27 23:31N 37°09' E 001°47'1515.8
2015-Aug-27 22:33N 37°14' E 002°06'1615.9
2015-Aug-27 21:33N 37°18' E 002°25'1515.4
2015-Aug-27 20:33N 37°22' E 002°44'1515.4
2015-Aug-27 19:33N 37°27' E 003°02'1515.4
2015-Aug-27 18:33N 37°31' E 003°21'1515.5
2015-Aug-27 17:33N 37°35' E 003°40'1515.4
2015-Aug-27 16:33N 37°39' E 003°58'1515.3
2015-Aug-27 15:33N 37°44' E 004°17'1515.1
2015-Aug-27 14:33N 37°48' E 004°35'1515.3
2015-Aug-27 13:33N 37°52' E 004°54'1515.3
2015-Aug-27 12:33N 37°56' E 005°13'5 8.4
2015-Aug-27 12:00N 37°54' E 005°18'1227.1 070 / 101016.610.8 0.528.921.126.0
2015-Aug-27 11:33N 38°01' E 005°31'1414.2
2015-Aug-27 10:33N 38°05' E 005°48'5315.2
2015-Aug-27 07:06N 38°19' E 006°53'8715.4
2015-Aug-27 01:25N 38°44' E 008°40'1315.1
2015-Aug-27 00:33N 38°49' E 008°55'611.3
2015-Aug-27 00:00N 38°54' E 009°00'818.7 070 / 121016.410.8 0.524.720.025.0
2015-Aug-26 23:33N 38°60' E 009°08'1212.4
2015-Aug-26 22:33N 39°12' E 009°05'1 1.1
2015-Aug-26 21:32N 39°13' E 009°04'0 0.0
2015-Aug-26 20:32N 39°13' E 009°04'0 0.0
2015-Aug-26 19:32N 39°13' E 009°04'0 0.0
2015-Aug-26 18:32N 39°13' E 009°04'0 0.0
2015-Aug-26 17:32N 39°13' E 009°04'0 0.0
2015-Aug-26 16:32N 39°13' E 009°04'0 0.0
2015-Aug-26 15:32N 39°13' E 009°04'0 0.0
2015-Aug-26 14:32N 39°13' E 009°04'0 0.0
2015-Aug-26 13:32N 39°13' E 009°04'0 0.0
2015-Aug-26 12:32N 39°13' E 009°04'0 0.5
2015-Aug-26 11:32N 39°13' E 009°04'5 5.1
2015-Aug-26 10:32N 39°08' E 009°05'1414.0
2015-Aug-26 09:33N 38°59' E 009°19'1313.3
2015-Aug-26 08:33N 38°52' E 009°34'6713.4
2015-Aug-26 03:32N 38°16' E 010°46'1413.6
2015-Aug-26 02:31N 38°09' E 011°01'2613.2
2015-Aug-26 00:33N 37°55' E 011°29'915.5
2015-Aug-26 00:00N 37°48' E 011°36'511.5 330 / 51017.310.8 0.525.820.626.0
2015-Aug-25 23:33N 37°47' E 011°42'2512.6
2015-Aug-25 21:33N 37°34' E 012°10'1312.7
2015-Aug-25 20:33N 37°27' E 012°23'1312.8
2015-Aug-25 19:34N 37°21' E 012°37'1313.0
2015-Aug-25 18:33N 37°19' E 012°53'1312.5
2015-Aug-25 17:33N 37°15' E 013°08'1312.6
2015-Aug-25 16:33N 37°09' E 013°22'1312.8
2015-Aug-25 15:33N 37°03' E 013°36'1312.8
2015-Aug-25 14:33N 36°57' E 013°50'1313.0
2015-Aug-25 13:33N 36°51' E 014°05'1313.0
2015-Aug-25 12:33N 36°45' E 014°19'5 8.7
2015-Aug-25 12:00N 36°42' E 014°24'818.3 270 / 81017.810.8 0.531.022.627.0
2015-Aug-25 11:33N 36°40' E 014°33'1212.4
2015-Aug-25 10:33N 36°36' E 014°48'1312.7
2015-Aug-25 09:31N 36°32' E 015°04'1212.4
2015-Aug-25 08:33N 36°29' E 015°18'1312.8
2015-Aug-25 07:33N 36°24' E 015°33'1313.1
2015-Aug-25 06:33N 36°20' E 015°48'1313.1
2015-Aug-25 05:33N 36°15' E 016°04'1312.9
2015-Aug-25 04:33N 36°11' E 016°19'1312.9
2015-Aug-25 03:33N 36°07' E 016°34'1313.0
2015-Aug-25 02:33N 36°03' E 016°49'1313.0
2015-Aug-25 01:32N 35°59' E 017°05'1613.0
2015-Aug-25 00:18N 35°54' E 017°23'1012.8
2015-Aug-24 23:33N 35°51' E 017°35'1313.0
2015-Aug-24 22:33N 35°46' E 017°50'47013.6
2015-Aug-23 12:00N 33°12' E 026°48'26814.2 350 / 111010.010.8 1.028.720.428.0
2015-Aug-22 17:05N 31°50' E 031°51'1013.2
2015-Aug-22 16:20N 31°44' E 032°00'1113.7
2015-Aug-22 15:33N 31°37' E 032°09'1313.4
2015-Aug-22 14:33N 31°29' E 032°22'2110.4
2015-Aug-22 12:32N 31°09' E 032°19'  

Dump ship's entire track history